Time;durP1;ratioP1;P1;durP2;ratioP2;P2;SDS_P1;SDS_P2;PMS_P1;PMS_P2;Temp;Humidity;BMP_temperature;BMP_pressure;BME280_temperature;BME280_humidity;BME280_pressure;Samples;Min_cycle;Max_cycle;Signal;HPM_P1;HPM_P2
2023/04/04 00:02:23;;;;;;;7.30;3.40;;;;;;;1.83;69.65;102910.22;5028244;28;20109;-83
2023/04/04 00:04:49;;;;;;;6.70;3.50;;;;;;;1.83;69.48;102904.09;5036584;28;20083;-83
2023/04/04 00:07:14;;;;;;;5.97;3.72;;;;;;;1.80;69.51;102905.00;5030130;28;20032;-83
2023/04/04 00:09:39;;;;;;;8.18;4.03;;;;;;;1.77;69.44;102905.03;5042498;28;20017;-83
2023/04/04 00:12:05;;;;;;;7.32;3.72;;;;;;;1.76;69.85;102902.41;5030011;28;20084;-83
2023/04/04 00:14:31;;;;;;;5.03;3.67;;;;;;;1.73;70.04;102903.28;5030442;28;20061;-83
2023/04/04 00:16:56;;;;;;;5.55;3.50;;;;;;;1.71;70.62;102907.69;5041419;28;20109;-83
2023/04/04 00:19:21;;;;;;;7.13;3.25;;;;;;;1.72;70.63;102905.94;5043161;28;20026;-82
2023/04/04 00:21:46;;;;;;;5.60;3.88;;;;;;;1.70;70.50;102912.91;5024252;28;20037;-83
2023/04/04 00:24:12;;;;;;;10.15;3.90;;;;;;;1.66;70.77;102918.16;5036469;28;20025;-84
2023/04/04 00:26:37;;;;;;;5.47;3.30;;;;;;;1.65;71.08;102916.47;5042921;28;20034;-83
2023/04/04 00:29:02;;;;;;;6.70;3.75;;;;;;;1.62;71.04;102919.09;5036501;28;20029;-83
2023/04/04 00:31:28;;;;;;;9.40;3.95;;;;;;;1.57;70.95;102915.63;5042472;28;20104;-83
2023/04/04 00:33:53;;;;;;;7.25;3.85;;;;;;;1.55;70.73;102913.88;5043295;28;20032;-83
2023/04/04 00:36:18;;;;;;;7.13;3.75;;;;;;;1.51;70.71;102910.41;5030590;28;20033;-83
2023/04/04 00:38:44;;;;;;;8.57;3.95;;;;;;;1.48;71.54;102916.56;5035150;28;20050;-83
2023/04/04 00:41:10;;;;;;;6.18;3.70;;;;;;;1.48;71.42;102915.66;5041761;28;20018;-83
2023/04/04 00:43:36;;;;;;;6.70;3.70;;;;;;;1.45;71.36;102919.19;5041665;28;20144;-83
2023/04/04 00:46:02;;;;;;;6.85;3.90;;;;;;;1.43;71.56;102920.94;5042593;28;20052;-83
2023/04/04 00:48:28;;;;;;;9.43;3.70;;;;;;;1.41;71.62;102922.69;5042667;28;20032;-83
2023/04/04 00:50:53;;;;;;;9.82;4.00;;;;;;;1.39;71.15;102923.56;5037356;28;20034;-83
2023/04/04 00:53:19;;;;;;;10.68;4.00;;;;;;;1.37;72.26;102922.72;5026737;28;20053;-83
2023/04/04 00:55:44;;;;;;;5.53;3.40;;;;;;;1.35;71.79;102921.84;5035709;28;20085;-83
2023/04/04 00:58:10;;;;;;;5.50;3.80;;;;;;;1.32;72.42;102919.25;5034006;28;20036;-83
2023/04/04 01:00:36;;;;;;;5.15;3.65;;;;;;;1.30;72.19;102924.50;5038392;28;20033;-83
2023/04/04 01:03:02;;;;;;;4.95;3.50;;;;;;;1.29;72.56;102918.38;5042219;28;20029;-83
2023/04/04 01:05:30;;;;;;;11.00;3.85;;;;;;;1.27;72.77;102921.88;5041979;28;20029;-83
2023/04/04 01:07:55;;;;;;;7.22;3.78;;;;;;;1.25;72.43;102921.91;5042157;28;20041;-83
2023/04/04 01:10:21;;;;;;;6.68;4.00;;;;;;;1.21;72.71;102916.66;5037552;28;20361;-83
2023/04/04 01:12:46;;;;;;;7.90;3.60;;;;;;;1.22;72.76;102918.41;5031244;28;20060;-82
2023/04/04 01:15:11;;;;;;;6.53;3.83;;;;;;;1.20;72.75;102918.44;5041747;28;20426;-83
2023/04/04 01:17:37;;;;;;;7.00;3.60;;;;;;;1.20;73.22;102918.44;5036657;28;20033;-83
2023/04/04 01:20:06;;;;;;;6.40;3.30;;;;;;;1.18;73.04;102904.44;5041190;28;20033;-83
2023/04/04 01:22:32;;;;;;;7.28;4.00;;;;;;;1.19;72.97;102902.72;5040374;28;20112;-83
2023/04/04 01:24:59;;;;;;;6.80;3.50;;;;;;;1.19;73.55;102907.97;5035124;28;20498;-83
2023/04/04 01:27:25;;;;;;;7.90;3.95;;;;;;;1.14;73.29;102894.88;5028433;28;20028;-83
2023/04/04 01:29:50;;;;;;;7.38;3.85;;;;;;;1.14;73.34;102896.66;5026807;28;20117;-83
2023/04/04 01:32:19;;;;;;;6.75;3.47;;;;;;;1.12;73.57;102888.78;5031051;28;20022;-83
2023/04/04 01:34:45;;;;;;;8.40;3.45;;;;;;;1.10;73.40;102882.69;5033096;28;20093;-83
2023/04/04 01:37:47;;;;;;;8.93;4.13;;;;;;;1.09;73.04;102886.19;5018611;28;20074;-83
2023/04/04 01:40:20;;;;;;;4.90;3.42;;;;;;;1.06;73.38;102887.06;5035855;28;20284;-82
2023/04/04 01:42:46;;;;;;;7.43;3.63;;;;;;;1.05;74.10;102887.06;5029792;28;20420;-83
2023/04/04 01:45:12;;;;;;;5.93;4.10;;;;;;;1.03;74.22;102888.81;5031839;28;20049;-83
2023/04/04 01:47:41;;;;;;;8.18;3.63;;;;;;;1.02;74.53;102894.94;5037511;28;20026;-83
2023/04/04 01:50:08;;;;;;;8.57;3.78;;;;;;;1.02;74.56;102881.88;5037327;28;20064;-83
2023/04/04 01:52:34;;;;;;;6.72;3.92;;;;;;;1.00;74.07;102886.22;5036384;28;20043;-83
2023/04/04 01:54:59;;;;;;;8.45;4.30;;;;;;;0.97;74.28;102887.09;5024784;28;20101;-83
2023/04/04 01:57:25;;;;;;;6.60;3.60;;;;;;;0.96;75.51;102885.34;5039083;28;20420;-83
2023/04/04 01:59:50;;;;;;;6.93;3.85;;;;;;;0.94;75.13;102881.03;5045670;28;20037;-82
2023/04/04 02:02:15;;;;;;;7.88;4.13;;;;;;;0.88;75.16;102884.50;5044783;28;20041;-82
2023/04/04 02:04:41;;;;;;;6.53;3.92;;;;;;;0.87;75.23;102883.66;5044860;28;20086;-83
2023/04/04 02:07:07;;;;;;;7.05;3.90;;;;;;;0.85;75.50;102885.41;5033222;28;20037;-82
2023/04/04 02:09:32;;;;;;;5.70;3.60;;;;;;;0.83;75.73;102883.66;5040636;28;20025;-82
2023/04/04 02:11:58;;;;;;;8.05;3.80;;;;;;;0.80;75.63;102886.28;5046093;28;20041;-82
2023/04/04 02:14:24;;;;;;;9.43;4.53;;;;;;;0.80;75.78;102886.28;5040476;28;20033;-82
2023/04/04 02:16:49;;;;;;;5.78;3.30;;;;;;;0.77;75.99;102892.41;5037070;28;20040;-82
2023/04/04 02:19:15;;;;;;;8.05;4.00;;;;;;;0.73;75.71;102888.03;5038212;28;20042;-83
2023/04/04 02:21:40;;;;;;;5.82;4.13;;;;;;;0.71;75.65;102895.03;5044149;28;20112;-83
2023/04/04 02:24:06;;;;;;;8.20;4.00;;;;;;;0.68;75.85;102895.91;5043861;28;20126;-83
2023/04/04 02:26:31;;;;;;;8.50;4.13;;;;;;;0.66;76.45;102897.63;5042888;28;20033;-83
2023/04/04 02:28:56;;;;;;;4.63;3.83;;;;;;;0.64;76.45;102890.69;5044006;28;20037;-83
2023/04/04 02:31:22;;;;;;;8.45;3.95;;;;;;;0.62;76.24;102895.91;5025999;28;20022;-83
2023/04/04 02:33:47;;;;;;;7.95;4.15;;;;;;;0.58;76.29;102895.91;5035013;28;20116;-83
2023/04/04 02:36:12;;;;;;;7.90;3.58;;;;;;;0.57;76.36;102907.25;5044498;28;20021;-83
2023/04/04 02:38:38;;;;;;;5.55;4.20;;;;;;;0.55;76.43;102915.13;5044866;28;20045;-83
2023/04/04 02:41:03;;;;;;;7.13;3.70;;;;;;;0.51;76.71;102906.38;5044792;28;20025;-83
2023/04/04 02:43:28;;;;;;;5.45;3.70;;;;;;;0.48;75.83;102906.41;5042142;28;20048;-83
2023/04/04 02:45:54;;;;;;;7.90;4.05;;;;;;;0.45;76.39;102901.19;5037521;28;20037;-83
2023/04/04 02:48:19;;;;;;;7.53;4.32;;;;;;;0.46;76.88;102902.03;5038188;28;20025;-83
2023/04/04 02:50:46;;;;;;;5.18;3.45;;;;;;;0.44;76.70;102895.94;5032350;28;20026;-84
2023/04/04 02:53:11;;;;;;;7.10;3.85;;;;;;;0.39;76.66;102889.88;5044615;28;20031;-84
2023/04/04 02:55:37;;;;;;;6.68;3.83;;;;;;;0.36;76.32;102893.34;5039414;28;20021;-84
2023/04/04 02:58:02;;;;;;;7.15;3.95;;;;;;;0.36;77.05;102883.75;5024967;28;20022;-83
2023/04/04 03:00:28;;;;;;;6.85;3.63;;;;;;;0.33;77.11;102885.50;5031692;28;20033;-84
2023/04/04 03:02:54;;;;;;;4.43;3.67;;;;;;;0.31;76.80;102888.09;5045147;28;20471;-83
2023/04/04 03:05:20;;;;;;;6.03;3.92;;;;;;;0.29;76.86;102883.78;5040058;28;20037;-83
2023/04/04 03:07:45;;;;;;;6.97;3.40;;;;;;;0.27;76.78;102883.75;5051677;28;20013;-83
2023/04/04 03:10:11;;;;;;;8.45;4.07;;;;;;;0.25;77.12;102882.91;5058533;28;20025;-83
2023/04/04 03:12:36;;;;;;;7.47;3.67;;;;;;;0.23;77.13;102883.75;5046453;28;20029;-84
2023/04/04 03:15:03;;;;;;;9.60;3.97;;;;;;;0.20;77.15;102895.09;5027770;28;20075;-83
2023/04/04 03:17:28;;;;;;;5.75;3.90;;;;;;;0.19;76.82;102898.56;5051031;28;20080;-83
2023/04/04 03:19:54;;;;;;;7.45;4.10;;;;;;;0.17;77.56;102893.34;5036762;28;20462;-84
2023/04/04 03:22:19;;;;;;;8.70;3.70;;;;;;;0.17;77.60;102897.72;5039396;28;20029;-83
2023/04/04 03:24:47;;;;;;;7.10;3.70;;;;;;;0.16;78.08;102898.56;5038699;28;20049;-83
2023/04/04 03:27:12;;;;;;;7.32;3.80;;;;;;;0.14;77.97;102897.72;5028344;28;20030;-83
2023/04/04 03:29:38;;;;;;;7.65;3.80;;;;;;;0.11;77.54;102892.47;5034191;28;20028;-84
2023/04/04 03:32:03;;;;;;;5.68;3.83;;;;;;;0.07;77.70;102893.38;5041375;28;20034;-84
2023/04/04 03:34:29;;;;;;;6.50;3.58;;;;;;;0.07;77.50;102890.75;5022699;28;20427;-83
2023/04/04 03:36:56;;;;;;;4.70;3.88;;;;;;;0.06;77.88;102892.47;5034176;28;20104;-83
2023/04/04 03:39:21;;;;;;;7.75;3.58;;;;;;;0.05;78.13;102890.75;5028992;28;20025;-83
2023/04/04 03:41:47;;;;;;;6.95;3.80;;;;;;;0.01;77.83;102875.91;5029180;28;20065;-84
2023/04/04 03:44:12;;;;;;;5.65;3.53;;;;;;;0.02;78.57;102875.06;5042271;28;20021;-83
2023/04/04 03:46:37;;;;;;;7.10;4.20;;;;;;;-0.02;78.33;102879.44;5030949;28;20030;-84
2023/04/04 03:49:02;;;;;;;6.88;3.88;;;;;;;-0.03;78.47;102877.66;5042271;28;20033;-83
2023/04/04 03:51:28;;;;;;;6.90;3.85;;;;;;;-0.05;78.48;102866.34;5042601;28;20017;-83
2023/04/04 03:53:53;;;;;;;6.13;4.00;;;;;;;-0.06;78.86;102867.22;5042903;28;20049;-83
2023/04/04 03:56:18;;;;;;;7.82;4.32;;;;;;;-0.09;78.62;102867.22;5042833;28;20034;-83
2023/04/04 03:58:44;;;;;;;4.82;3.58;;;;;;;-0.11;78.36;102866.34;5038137;28;20473;-83
2023/04/04 04:01:10;;;;;;;5.75;3.75;;;;;;;-0.12;78.85;102864.59;5024101;28;20033;-84
2023/04/04 04:03:36;;;;;;;5.15;3.88;;;;;;;-0.14;78.79;102866.34;5040523;28;20837;-83
2023/04/04 04:06:01;;;;;;;6.50;4.45;;;;;;;-0.15;79.30;102863.72;5036241;28;20022;-83
2023/04/04 04:08:27;;;;;;;8.27;4.38;;;;;;;-0.15;80.01;102867.22;5026232;28;20032;-84
2023/04/04 04:10:53;;;;;;;7.75;4.45;;;;;;;-0.16;79.60;102869.84;5024074;28;20029;-83
2023/04/04 04:13:18;;;;;;;7.80;4.03;;;;;;;-0.20;79.05;102867.22;5023157;28;20084;-83
2023/04/04 04:15:44;;;;;;;6.90;4.00;;;;;;;-0.23;79.13;102875.03;5024802;28;20100;-83
2023/04/04 04:18:09;;;;;;;8.15;4.28;;;;;;;-0.22;79.80;102874.19;5041791;28;20021;-83
2023/04/04 04:20:34;;;;;;;6.95;4.50;;;;;;;-0.28;79.24;102871.56;5037035;28;20037;-83
2023/04/04 04:23:00;;;;;;;6.55;4.05;;;;;;;-0.27;79.48;102873.28;5037039;28;20022;-84
2023/04/04 04:25:25;;;;;;;7.07;4.45;;;;;;;-0.27;80.39;102875.03;5034534;28;20028;-83
2023/04/04 04:27:54;;;;;;;7.18;4.38;;;;;;;-0.32;80.73;102867.19;5040519;28;20612;-83
2023/04/04 04:30:20;;;;;;;7.53;4.55;;;;;;;-0.33;80.04;102865.47;5040963;28;20060;-83
2023/04/04 04:32:47;;;;;;;8.48;4.45;;;;;;;-0.34;79.97;102866.31;5029406;28;20022;-83
2023/04/04 04:35:13;;;;;;;6.18;4.32;;;;;;;-0.34;80.07;102865.44;5033608;28;20029;-84
2023/04/04 04:37:38;;;;;;;8.05;4.38;;;;;;;-0.35;80.20;102863.69;5036079;28;20046;-83
2023/04/04 04:40:04;;;;;;;7.65;4.28;;;;;;;-0.35;80.84;102864.59;5034833;28;20499;-84
2023/04/04 04:42:29;;;;;;;8.18;3.95;;;;;;;-0.37;81.05;102874.13;5024547;28;20029;-83
2023/04/04 04:44:54;;;;;;;10.38;4.43;;;;;;;-0.38;80.60;102864.59;5034280;28;20062;-84
2023/04/04 04:47:20;;;;;;;8.27;4.72;;;;;;;-0.40;81.07;102868.91;5041722;28;20051;-83
2023/04/04 04:49:48;;;;;;;7.03;4.53;;;;;;;-0.44;81.06;102860.19;5030224;28;20026;-84
2023/04/04 04:52:13;;;;;;;9.10;4.55;;;;;;;-0.47;80.85;102861.94;5039777;28;20022;-84
2023/04/04 04:54:38;;;;;;;8.35;4.57;;;;;;;-0.48;80.70;102868.03;5034767;28;20028;-83
2023/04/04 04:57:03;;;;;;;8.30;4.90;;;;;;;-0.51;80.96;102878.47;5042249;28;20029;-83
2023/04/04 04:59:29;;;;;;;7.30;4.50;;;;;;;-0.53;81.02;102880.19;5041276;28;20029;-83
2023/04/04 05:01:54;;;;;;;9.13;4.13;;;;;;;-0.54;81.04;102887.16;5042251;28;20052;-83
2023/04/04 05:04:20;;;;;;;6.35;3.90;;;;;;;-0.54;80.86;102896.75;5042044;28;20455;-83
2023/04/04 05:06:45;;;;;;;6.80;4.57;;;;;;;-0.56;80.94;102899.34;5024716;28;20026;-83
2023/04/04 05:09:11;;;;;;;6.68;4.38;;;;;;;-0.57;81.64;102906.31;5036482;28;20037;-84
2023/04/04 05:11:36;;;;;;;7.85;4.38;;;;;;;-0.57;81.51;102902.81;5031620;28;20052;-83
2023/04/04 05:14:01;;;;;;;8.75;4.60;;;;;;;-0.57;81.86;102902.81;5038688;28;20026;-82
2023/04/04 05:16:26;;;;;;;12.50;4.93;;;;;;;-0.61;82.28;102901.94;5033398;28;20040;-83
2023/04/04 05:18:52;;;;;;;10.57;4.88;;;;;;;-0.61;81.48;102894.09;5032957;28;20084;-83
2023/04/04 05:21:18;;;;;;;7.38;4.50;;;;;;;-0.62;82.18;102901.91;5040901;28;20030;-82
2023/04/04 05:23:44;;;;;;;11.15;4.80;;;;;;;-0.63;82.04;102895.84;5030007;28;20022;-83
2023/04/04 05:26:09;;;;;;;8.23;4.68;;;;;;;-0.65;82.78;102891.47;5041347;28;20108;-82
2023/04/04 05:28:35;;;;;;;9.07;4.15;;;;;;;-0.66;82.58;102901.03;5039318;28;20108;-82
2023/04/04 05:31:00;;;;;;;6.80;4.68;;;;;;;-0.66;82.70;102897.56;5042523;28;20585;-82
2023/04/04 05:33:31;;;;;;;9.75;5.05;;;;;;;-0.66;82.67;102903.66;5038250;28;20443;-82
2023/04/04 05:35:58;;;;;;;8.80;4.82;;;;;;;-0.70;82.63;102904.53;5042250;28;20038;-82
2023/04/04 05:38:24;;;;;;;7.93;4.65;;;;;;;-0.68;83.32;102900.19;5028849;28;20439;-82
2023/04/04 05:40:52;;;;;;;6.07;4.45;;;;;;;-0.71;83.10;102894.94;5037147;28;20029;-82
2023/04/04 05:43:18;;;;;;;11.80;4.82;;;;;;;-0.68;83.40;102905.41;5033206;28;20116;-82
2023/04/04 05:45:43;;;;;;;7.40;4.68;;;;;;;-0.70;83.61;102912.34;5033487;28;20057;-83
2023/04/04 05:48:08;;;;;;;11.55;5.20;;;;;;;-0.70;83.54;102904.53;5041883;28;20115;-82
2023/04/04 05:50:34;;;;;;;6.60;4.90;;;;;;;-0.71;84.20;102908.00;5042011;28;20045;-83
2023/04/04 05:52:59;;;;;;;9.63;5.47;;;;;;;-0.67;84.08;102914.09;5036788;28;20076;-83
2023/04/04 05:55:25;;;;;;;8.40;4.57;;;;;;;-0.68;84.41;102923.66;5039659;28;20065;-83
2023/04/04 05:57:50;;;;;;;10.30;5.60;;;;;;;-0.67;84.40;102917.56;5039209;28;20032;-83
2023/04/04 06:00:18;;;;;;;7.20;4.97;;;;;;;-0.66;84.79;102918.44;5040472;28;20052;-83
2023/04/04 06:02:43;;;;;;;8.00;4.97;;;;;;;-0.66;84.99;102913.22;5040443;28;20112;-83
2023/04/04 06:05:09;;;;;;;7.85;5.03;;;;;;;-0.64;84.91;102914.97;5031330;28;20438;-83
2023/04/04 06:07:35;;;;;;;9.38;5.70;;;;;;;-0.63;84.80;102911.50;5040140;28;20033;-82
2023/04/04 06:10:00;;;;;;;8.80;5.45;;;;;;;-0.59;84.77;102908.03;5039013;28;20193;-83
2023/04/04 06:12:26;;;;;;;7.55;4.75;;;;;;;-0.59;85.12;102908.03;5037722;28;20050;-83
2023/04/04 06:14:51;;;;;;;7.50;4.90;;;;;;;-0.55;84.65;102908.91;5039597;28;20040;-83
2023/04/04 06:17:17;;;;;;;11.75;5.47;;;;;;;-0.53;84.94;102914.13;5039607;28;20085;-84
2023/04/04 06:19:42;;;;;;;13.27;6.00;;;;;;;-0.50;84.89;102911.53;5038115;28;20032;-84
2023/04/04 06:22:07;;;;;;;9.40;5.18;;;;;;;-0.47;84.37;102914.16;5039737;28;20092;-84
2023/04/04 06:24:33;;;;;;;8.38;5.15;;;;;;;-0.44;84.41;102922.84;5036731;28;20033;-84
2023/04/04 06:26:58;;;;;;;9.98;5.80;;;;;;;-0.39;83.96;102923.75;5036006;28;20483;-84
2023/04/04 06:29:25;;;;;;;9.98;5.53;;;;;;;-0.34;83.94;102925.50;5029129;28;20116;-84
2023/04/04 06:31:50;;;;;;;10.52;5.40;;;;;;;-0.28;84.11;102923.78;5015288;28;20464;-85
2023/04/04 06:34:15;;;;;;;10.07;5.60;;;;;;;-0.21;83.52;102935.97;5026634;28;20086;-84
2023/04/04 06:36:41;;;;;;;12.27;5.80;;;;;;;-0.16;83.01;102930.75;5035278;28;20136;-84
2023/04/04 06:39:06;;;;;;;9.48;6.07;;;;;;;-0.09;82.42;102934.25;5031618;28;20100;-84
2023/04/04 06:41:32;;;;;;;6.90;5.45;;;;;;;-0.03;82.05;102940.38;5033386;28;20049;-84
2023/04/04 06:43:57;;;;;;;8.77;5.93;;;;;;;0.04;81.73;102925.56;5033271;28;20096;-83
2023/04/04 06:46:23;;;;;;;12.05;6.40;;;;;;;0.09;81.86;102923.81;5030065;28;20054;-83
2023/04/04 06:48:49;;;;;;;12.93;5.90;;;;;;;0.14;80.99;102926.44;5044784;28;20053;-83
2023/04/04 06:51:14;;;;;;;13.48;6.10;;;;;;;0.21;81.57;102928.19;5044452;28;20042;-84
2023/04/04 06:53:40;;;;;;;11.10;6.20;;;;;;;0.28;80.30;102935.16;5045933;28;20034;-83
2023/04/04 06:56:06;;;;;;;9.45;6.07;;;;;;;0.35;80.44;102936.91;5031641;28;20033;-83
2023/04/04 06:58:31;;;;;;;12.23;5.72;;;;;;;0.45;80.20;102939.50;5029513;28;20037;-84
2023/04/04 07:01:01;;;;;;;10.57;6.28;;;;;;;0.51;79.57;102936.91;5035408;28;20094;-83
2023/04/04 07:03:26;;;;;;;11.55;6.00;;;;;;;0.59;80.07;102939.50;5039641;28;20025;-84
2023/04/04 07:05:51;;;;;;;13.45;6.20;;;;;;;0.68;79.35;102936.88;5039087;28;20068;-83
2023/04/04 07:08:17;;;;;;;11.82;5.65;;;;;;;0.76;78.65;102935.13;5041714;28;20025;-83
2023/04/04 07:10:42;;;;;;;11.02;6.00;;;;;;;0.88;79.08;102945.56;5040043;28;20120;-83
2023/04/04 07:13:08;;;;;;;7.75;5.47;;;;;;;0.99;79.15;102942.06;5042242;28;20028;-83
2023/04/04 07:15:34;;;;;;;9.30;6.18;;;;;;;1.09;78.26;102943.75;5059493;28;20111;-84
2023/04/04 07:18:00;;;;;;;9.30;6.32;;;;;;;1.23;79.30;102939.38;5037522;28;20108;-81
2023/04/04 07:20:27;;;;;;;10.20;6.40;;;;;;;1.38;78.92;102938.44;5038656;28;20459;-84
2023/04/04 07:22:52;;;;;;;9.45;6.40;;;;;;;1.55;78.77;102935.72;5049069;28;20029;-84
2023/04/04 07:25:18;;;;;;;9.45;5.97;;;;;;;1.73;77.86;102936.47;5044865;28;20041;-84
2023/04/04 07:27:43;;;;;;;9.27;5.90;;;;;;;1.97;78.05;102933.72;5054381;28;20471;-83
2023/04/04 07:30:09;;;;;;;8.38;6.25;;;;;;;2.26;76.32;102937.00;5052555;28;20069;-84
2023/04/04 07:32:36;;;;;;;9.32;5.72;;;;;;;2.57;75.94;102933.22;5048085;28;20037;-83
2023/04/04 07:35:03;;;;;;;10.25;6.30;;;;;;;2.85;74.78;102925.09;5042940;28;20017;-84
2023/04/04 07:37:29;;;;;;;7.95;5.78;;;;;;;3.17;73.29;102918.59;5051319;28;20048;-83
2023/04/04 07:39:54;;;;;;;10.65;5.18;;;;;;;3.51;70.49;102911.16;5024420;28;20097;-84
2023/04/04 07:42:21;;;;;;;11.60;5.97;;;;;;;3.81;69.86;102910.72;5038697;28;20028;-84
2023/04/04 07:44:48;;;;;;;8.02;4.65;;;;;;;4.08;68.13;102918.19;5039356;28;20083;-84
2023/04/04 07:47:14;;;;;;;8.80;4.85;;;;;;;4.35;67.28;102913.38;5040729;28;20033;-84
2023/04/04 07:49:42;;;;;;;7.15;5.00;;;;;;;4.72;68.17;102920.59;5036155;28;20021;-84
2023/04/04 07:52:07;;;;;;;8.88;5.03;;;;;;;5.00;67.41;102914.81;5027642;28;20117;-84
2023/04/04 07:54:33;;;;;;;9.18;5.07;;;;;;;5.28;63.66;102911.59;5037387;28;20036;-84
2023/04/04 07:56:59;;;;;;;6.85;4.90;;;;;;;5.54;63.68;102905.75;5037744;28;20068;-84
2023/04/04 07:59:25;;;;;;;9.27;5.18;;;;;;;5.78;62.83;102906.09;5042919;28;20025;-84
2023/04/04 08:01:50;;;;;;;10.55;4.88;;;;;;;6.05;60.68;102921.31;5030189;28;20108;-84
2023/04/04 08:04:16;;;;;;;5.53;3.80;;;;;;;6.29;58.18;102913.69;5034083;28;20036;-84
2023/04/04 08:06:41;;;;;;;7.18;4.57;;;;;;;6.58;57.55;102922.66;5041966;28;20410;-84
2023/04/04 08:09:06;;;;;;;7.60;4.40;;;;;;;6.79;57.74;102914.13;5043003;28;20025;-85
2023/04/04 08:11:32;;;;;;;7.57;4.28;;;;;;;7.01;57.85;102911.75;5040511;28;20091;-84
2023/04/04 08:13:57;;;;;;;7.07;4.30;;;;;;;7.30;56.84;102910.03;5037334;28;20087;-84
2023/04/04 08:16:22;;;;;;;6.70;4.88;;;;;;;7.53;56.64;102901.44;5036793;28;20123;-84
2023/04/04 08:18:48;;;;;;;8.68;4.20;;;;;;;7.75;53.43;102911.34;5032831;28;20021;-85
2023/04/04 08:21:13;;;;;;;6.47;3.50;;;;;;;7.93;52.51;102913.41;5035247;28;20045;-84
2023/04/04 08:23:39;;;;;;;5.70;3.00;;;;;;;8.09;49.11;102913.78;5045078;28;20033;-84
2023/04/04 08:26:04;;;;;;;5.75;3.28;;;;;;;8.27;50.12;102908.78;5019660;28;20084;-84
2023/04/04 08:28:30;;;;;;;7.55;3.80;;;;;;;8.44;50.73;102910.88;5029053;28;20038;-84
2023/04/04 08:30:55;;;;;;;6.70;3.63;;;;;;;8.57;48.77;102912.16;5037118;28;20104;-84
2023/04/04 08:33:23;;;;;;;8.10;3.58;;;;;;;8.77;49.03;102907.97;5032821;28;20465;-84
2023/04/04 08:35:48;;;;;;;7.57;3.80;;;;;;;9.00;47.81;102912.44;5036551;28;20386;-84
2023/04/04 08:38:13;;;;;;;5.40;3.42;;;;;;;9.16;45.96;102907.41;5035350;28;20049;-83
2023/04/04 08:40:39;;;;;;;7.68;3.20;;;;;;;9.34;44.97;102906.72;5037743;28;20486;-83
2023/04/04 08:43:05;;;;;;;7.10;2.95;;;;;;;9.41;42.79;102908.22;5045083;28;20032;-84
2023/04/04 08:45:32;;;;;;;4.22;3.13;;;;;;;9.47;43.78;102899.16;5021426;28;20030;-83
2023/04/04 08:48:00;;;;;;;6.10;2.55;;;;;;;9.54;42.58;102891.81;5018524;28;20060;-83
2023/04/04 08:50:27;;;;;;;3.75;2.38;;;;;;;9.68;40.82;102897.44;5035856;28;20101;-83
2023/04/04 08:52:54;;;;;;;5.68;2.78;;;;;;;9.68;40.05;102893.94;5032317;28;20482;-84
2023/04/04 08:55:19;;;;;;;6.57;2.97;;;;;;;9.82;40.94;102886.25;5023999;28;20072;-82
2023/04/04 08:57:45;;;;;;;3.75;2.63;;;;;;;10.07;41.36;102902.03;5042175;28;20033;-82
2023/04/04 09:00:12;;;;;;;3.65;2.67;;;;;;;10.11;39.72;102893.03;5039014;28;20034;-83
2023/04/04 09:02:59;;;;;;;4.45;2.30;;;;;;;10.22;41.77;102886.41;5032120;28;20418;-83
2023/04/04 09:05:25;;;;;;;6.95;2.78;;;;;;;10.33;40.64;102892.16;5026711;28;20034;-82
2023/04/04 09:07:51;;;;;;;5.45;2.60;;;;;;;10.38;38.59;102895.50;5041010;28;20072;-83
2023/04/04 09:10:16;;;;;;;7.07;2.40;;;;;;;10.58;38.95;102893.78;5030565;28;20026;-83
2023/04/04 09:12:44;;;;;;;4.78;2.70;;;;;;;10.76;38.63;102884.97;5023412;28;20467;-83
2023/04/04 09:15:10;;;;;;;6.45;2.63;;;;;;;10.93;38.38;102890.38;5033071;28;20048;-83
2023/04/04 09:17:36;;;;;;;3.10;2.47;;;;;;;11.08;38.69;102880.84;5038094;28;20379;-82
2023/04/04 09:20:05;;;;;;;3.20;2.30;;;;;;;11.11;36.79;102886.03;5036646;28;20025;-83
2023/04/04 09:22:31;;;;;;;4.57;2.50;;;;;;;11.21;36.21;102880.28;5036874;28;20022;-82
2023/04/04 09:24:56;;;;;;;3.50;2.15;;;;;;;11.28;36.70;102882.56;5036712;28;20032;-83
2023/04/04 09:27:22;;;;;;;4.13;2.53;;;;;;;11.29;36.64;102888.75;5037666;28;20037;-83
2023/04/04 09:29:47;;;;;;;2.92;2.13;;;;;;;11.38;35.46;102888.31;5029265;28;20111;-82
2023/04/04 09:32:16;;;;;;;4.63;2.38;;;;;;;11.43;36.78;102893.44;5033222;28;20033;-82
2023/04/04 09:34:43;;;;;;;4.60;2.30;;;;;;;11.52;36.08;102884.16;5040941;28;20060;-82
2023/04/04 09:37:12;;;;;;;3.20;2.17;;;;;;;11.65;35.60;102883.47;5043206;28;20048;-82
2023/04/04 09:39:39;;;;;;;4.28;2.50;;;;;;;11.88;35.57;102883.31;5038058;28;20040;-83
2023/04/04 09:42:07;;;;;;;5.03;2.70;;;;;;;11.86;34.18;102886.03;5044228;28;20033;-84
2023/04/04 09:44:33;;;;;;;5.33;2.60;;;;;;;11.85;34.49;102879.81;5031161;28;20115;-84
2023/04/04 09:47:24;;;;;;;5.30;2.35;;;;;;;12.07;37.59;102876.13;5024266;28;20684;-84
2023/04/04 09:49:50;;;;;;;4.60;2.45;;;;;;;12.09;33.63;102873.38;5034771;28;20021;-83
2023/04/04 09:52:19;;;;;;;9.95;2.45;;;;;;;12.14;34.67;102879.34;5029302;28;20037;-83
2023/04/04 09:54:53;;;;;;;;;;;;;;;12.45;39.21;102883.97;5037873;28;20040;-83
2023/04/04 09:57:19;;;;;;;5.25;2.88;;;;;;;12.27;33.93;102869.78;5033939;28;20260;-83
2023/04/04 09:59:45;;;;;;;6.70;2.65;;;;;;;12.35;33.11;102864.06;5034807;28;20335;-83
2023/04/04 10:02:11;;;;;;;5.45;2.58;;;;;;;12.43;34.13;102869.00;5036206;28;20042;-83
2023/04/04 10:04:37;;;;;;;3.53;2.22;;;;;;;12.59;32.56;102872.59;5025974;28;20382;-83
2023/04/04 10:07:02;;;;;;;5.68;2.17;;;;;;;12.66;32.80;102870.47;5037672;28;20551;-83
2023/04/04 10:09:28;;;;;;;4.80;2.40;;;;;;;12.69;32.24;102868.50;5039858;28;20078;-83
2023/04/04 10:12:08;;;;;;;4.53;2.50;;;;;;;12.99;35.15;102869.59;5027703;28;20025;-83
2023/04/04 10:14:34;;;;;;;4.70;2.05;;;;;;;13.04;32.61;102860.41;5031823;28;20030;-83
2023/04/04 10:17:00;;;;;;;2.88;2.45;;;;;;;12.96;30.92;102867.97;5027074;28;20109;-83
2023/04/04 10:19:26;;;;;;;3.78;2.55;;;;;;;12.93;31.48;102860.13;5026785;28;20026;-83
2023/04/04 10:21:53;;;;;;;3.90;2.40;;;;;;;13.12;31.68;102858.19;5029128;28;20052;-83
2023/04/04 10:24:18;;;;;;;3.53;2.22;;;;;;;13.14;31.91;102856.28;5036312;28;20029;-83
2023/04/04 10:26:43;;;;;;;6.38;3.30;;;;;;;13.21;32.02;102859.47;5036630;28;20029;-83
2023/04/04 10:29:10;;;;;;;3.85;2.38;;;;;;;13.40;32.43;102853.13;5036185;28;20068;-83
2023/04/04 10:31:40;;;;;;;3.47;2.28;;;;;;;13.53;31.65;102846.13;5035989;28;20649;-83
2023/04/04 10:34:29;;;;;;;5.45;2.08;;;;;;;13.72;33.63;102856.59;5036786;28;20029;-83
2023/04/04 10:37:11;;;;;;;5.25;2.50;;;;;;;13.62;32.26;102858.97;5038471;28;20475;-83
2023/04/04 10:39:49;;;;;;;4.72;2.60;;;;;;;13.66;33.38;102849.81;5037028;28;20598;-83
2023/04/04 10:42:17;;;;;;;6.88;2.47;;;;;;;13.55;30.10;102849.56;5024412;28;20038;-83
2023/04/04 10:44:44;;;;;;;5.85;2.60;;;;;;;13.47;32.15;102844.69;5038602;28;20040;-83
2023/04/04 10:47:15;;;;;;;5.03;3.08;;;;;;;13.48;31.16;102843.72;5030153;28;20021;-83
2023/04/04 10:49:45;;;;;;;4.75;2.70;;;;;;;13.50;31.50;102836.47;5040645;28;20026;-83
2023/04/04 10:52:13;;;;;;;5.10;2.70;;;;;;;13.63;32.65;102836.66;5033367;28;20030;-83
2023/04/04 10:54:40;;;;;;;7.93;3.13;;;;;;;13.99;32.58;102829.22;5022383;28;20076;-83
2023/04/04 10:57:06;;;;;;;5.47;2.90;;;;;;;13.88;30.55;102822.72;5038281;28;20084;-83
2023/04/04 10:59:31;;;;;;;7.40;2.78;;;;;;;13.99;31.87;102827.44;5032458;28;20467;-83
2023/04/04 11:02:01;;;;;;;4.50;3.03;;;;;;;14.05;31.96;102834.22;5041955;28;20030;-83
2023/04/04 11:04:36;;;;;;;5.65;2.58;;;;;;;13.88;30.07;102828.06;5041221;28;20048;-83
2023/04/04 11:07:09;;;;;;;4.70;2.20;;;;;;;13.81;30.44;102826.72;5020068;28;20034;-83
2023/04/04 11:09:47;;;;;;;4.75;2.65;;;;;;;14.00;32.58;102833.63;5038093;28;20017;-82
2023/04/04 11:12:19;;;;;;;4.57;2.55;;;;;;;14.11;31.00;102825.84;5040143;28;20029;-82
2023/04/04 11:14:59;;;;;;;5.22;2.67;;;;;;;14.33;32.36;102821.88;5042662;28;20106;-83
2023/04/04 11:17:56;;;;;;;5.80;2.75;;;;;;;14.51;32.44;102812.72;5036019;28;20037;-83
2023/04/04 11:20:28;;;;;;;4.13;2.25;;;;;;;14.48;31.27;102810.22;5036646;28;20021;-83
2023/04/04 11:23:07;;;;;;;4.28;2.25;;;;;;;14.68;31.85;102806.34;5055487;28;20045;-83
2023/04/04 11:25:33;;;;;;;2.75;2.33;;;;;;;14.60;30.08;102798.81;5039690;28;20014;-82
2023/04/04 11:28:06;;;;;;;4.53;2.50;;;;;;;14.56;29.25;102799.91;5045040;28;20030;-82